Time,TemperatureF,DewpointF,PressureIn,WindDirection,WindDirectionDegrees,WindSpeedMPH,WindSpeedGustMPH,Humidity,HourlyPrecipIn,Conditions,Clouds,dailyrainin,SolarRadiationWatts/m^2,SoftwareType,DateUTC
2013-07-02 00:22:00,91.0,54.0,-100.00,NW,315,9.0,16.0,29,0.00,,,0.00,703.000000,,2013-07-02 00:22:00,
2013-07-02 00:33:00,91.0,54.0,-100.00,NW,315,9.0,16.0,29,0.00,,,0.00,703.000000,,2013-07-02 00:33:00,
2013-07-02 00:43:00,91.0,54.0,-100.00,NW,315,9.0,16.0,29,0.00,,,0.00,703.000000,,2013-07-02 00:43:00,
2013-07-02 00:53:00,91.0,54.0,-100.00,NW,315,9.0,16.0,29,0.00,,,0.00,703.000000,,2013-07-02 00:53:00,
2013-07-02 01:22:00,89.0,50.0,-100.00,WNW,296,10.0,17.0,26,0.00,,,0.00,540.000000,,2013-07-02 01:22:00,
2013-07-02 01:33:00,89.0,50.0,-100.00,WNW,296,10.0,17.0,26,0.00,,,0.00,540.000000,,2013-07-02 01:33:00,
2013-07-02 01:43:00,89.0,50.0,-100.00,WNW,296,10.0,17.0,26,0.00,,,0.00,540.000000,,2013-07-02 01:43:00,
2013-07-02 01:53:00,89.0,50.0,-100.00,WNW,296,10.0,17.0,26,0.00,,,0.00,540.000000,,2013-07-02 01:53:00,
2013-07-02 02:22:00,87.0,49.0,-100.00,WNW,293,9.0,15.0,27,0.00,,,0.00,356.000000,,2013-07-02 02:22:00,
2013-07-02 02:33:00,87.0,49.0,-100.00,WNW,293,9.0,15.0,27,0.00,,,0.00,356.000000,,2013-07-02 02:33:00,
2013-07-02 02:43:00,87.0,49.0,-100.00,WNW,293,9.0,15.0,27,0.00,,,0.00,356.000000,,2013-07-02 02:43:00,
2013-07-02 02:53:00,87.0,49.0,-100.00,WNW,293,9.0,15.0,27,0.00,,,0.00,356.000000,,2013-07-02 02:53:00,
2013-07-02 03:24:00,83.0,55.0,-100.00,West,271,5.0,13.0,38,0.00,,,0.00,170.000000,,2013-07-02 03:24:00,
2013-07-02 03:32:00,83.0,55.0,-100.00,West,271,5.0,13.0,38,0.00,,,0.00,170.000000,,2013-07-02 03:32:00,
2013-07-02 03:43:00,83.0,55.0,-100.00,West,271,5.0,13.0,38,0.00,,,0.00,170.000000,,2013-07-02 03:43:00,
2013-07-02 03:53:00,83.0,55.0,-100.00,West,271,5.0,13.0,38,0.00,,,0.00,170.000000,,2013-07-02 03:53:00,
2013-07-02 04:22:00,78.0,53.0,-100.00,WNW,297,5.0,10.0,42,0.00,,,0.00,44.000000,,2013-07-02 04:22:00,
2013-07-02 04:32:00,78.0,53.0,-100.00,WNW,297,5.0,10.0,42,0.00,,,0.00,44.000000,,2013-07-02 04:32:00,
2013-07-02 04:42:00,78.0,53.0,-100.00,WNW,297,5.0,10.0,42,0.00,,,0.00,44.000000,,2013-07-02 04:42:00,
2013-07-02 04:53:00,78.0,53.0,-100.00,WNW,297,5.0,10.0,42,0.00,,,0.00,44.000000,,2013-07-02 04:53:00,
2013-07-02 05:22:00,74.0,52.0,-100.00,ENE,68,2.0,4.0,47,0.00,,,0.00,2.000000,,2013-07-02 05:22:00,
2013-07-02 05:32:00,74.0,52.0,-100.00,ENE,68,2.0,4.0,47,0.00,,,0.00,2.000000,,2013-07-02 05:32:00,
2013-07-02 05:43:00,74.0,52.0,-100.00,ENE,68,2.0,4.0,47,0.00,,,0.00,2.000000,,2013-07-02 05:43:00,
2013-07-02 05:53:00,74.0,52.0,-100.00,ENE,68,2.0,4.0,47,0.00,,,0.00,2.000000,,2013-07-02 05:53:00,
2013-07-02 06:23:00,71.0,54.0,-100.00,ENE,78,3.0,6.0,56,0.00,,,0.00,1.000000,,2013-07-02 06:23:00,
2013-07-02 06:33:00,71.0,54.0,-100.00,ENE,78,3.0,6.0,56,0.00,,,0.00,1.000000,,2013-07-02 06:33:00,
2013-07-02 06:43:00,71.0,54.0,-100.00,ENE,78,3.0,6.0,56,0.00,,,0.00,1.000000,,2013-07-02 06:43:00,
2013-07-02 06:53:00,71.0,54.0,-100.00,ENE,78,3.0,6.0,56,0.00,,,0.00,1.000000,,2013-07-02 06:53:00,
2013-07-02 07:22:00,68.0,55.0,-100.00,ENE,67,4.0,6.0,64,0.00,,,0.00,1.000000,,2013-07-02 07:22:00,
2013-07-02 07:33:00,68.0,55.0,-100.00,ENE,67,4.0,6.0,64,0.00,,,0.00,1.000000,,2013-07-02 07:33:00,
2013-07-02 07:44:00,68.0,55.0,-100.00,ENE,67,4.0,6.0,64,0.00,,,0.00,1.000000,,2013-07-02 07:44:00,
2013-07-02 07:52:00,68.0,55.0,-100.00,ENE,67,4.0,6.0,64,0.00,,,0.00,1.000000,,2013-07-02 07:52:00,
2013-07-02 08:22:00,69.0,59.0,-100.00,NNE,29,5.0,7.0,70,0.00,,,0.00,1.000000,,2013-07-02 08:22:00,
2013-07-02 08:33:00,69.0,59.0,-100.00,NNE,29,5.0,7.0,70,0.00,,,0.00,1.000000,,2013-07-02 08:33:00,
2013-07-02 08:44:00,69.0,59.0,-100.00,NNE,29,5.0,7.0,70,0.00,,,0.00,1.000000,,2013-07-02 08:44:00,
2013-07-02 08:53:00,69.0,59.0,-100.00,NNE,29,5.0,7.0,70,0.00,,,0.00,1.000000,,2013-07-02 08:53:00,
2013-07-02 09:22:00,67.0,59.0,-100.00,NE,48,5.0,7.0,76,0.00,,,0.00,1.000000,,2013-07-02 09:22:00,
2013-07-02 09:33:00,67.0,59.0,-100.00,NE,48,5.0,7.0,76,0.00,,,0.00,1.000000,,2013-07-02 09:33:00,
2013-07-02 09:43:00,67.0,59.0,-100.00,NE,48,5.0,7.0,76,0.00,,,0.00,1.000000,,2013-07-02 09:43:00,
2013-07-02 09:52:00,67.0,59.0,-100.00,NE,48,5.0,7.0,76,0.00,,,0.00,1.000000,,2013-07-02 09:52:00,
2013-07-02 10:22:00,64.0,59.0,-100.00,ENE,66,4.0,5.0,84,0.00,,,0.00,1.000000,,2013-07-02 10:22:00,
2013-07-02 10:33:00,64.0,59.0,-100.00,ENE,66,4.0,5.0,84,0.00,,,0.00,1.000000,,2013-07-02 10:33:00,
2013-07-02 10:43:00,64.0,59.0,-100.00,ENE,66,4.0,5.0,84,0.00,,,0.00,1.000000,,2013-07-02 10:43:00,
2013-07-02 10:52:00,64.0,59.0,-100.00,ENE,66,4.0,5.0,84,0.00,,,0.00,1.000000,,2013-07-02 10:52:00,
2013-07-02 11:22:00,62.0,58.0,-100.00,East,81,5.0,7.0,86,0.00,,,0.00,1.000000,,2013-07-02 11:22:00,
2013-07-02 11:33:00,62.0,58.0,-100.00,East,81,5.0,7.0,86,0.00,,,0.00,1.000000,,2013-07-02 11:33:00,
2013-07-02 11:42:00,62.0,58.0,-100.00,East,81,5.0,7.0,86,0.00,,,0.00,1.000000,,2013-07-02 11:42:00,
2013-07-02 11:52:00,62.0,58.0,-100.00,East,81,5.0,7.0,86,0.00,,,0.00,1.000000,,2013-07-02 11:52:00,
2013-07-02 12:23:00,62.0,59.0,-100.00,NE,53,6.0,8.0,90,0.00,,,0.00,1.000000,,2013-07-02 12:23:00,
2013-07-02 12:33:00,62.0,59.0,-100.00,NE,53,6.0,8.0,90,0.00,,,0.00,1.000000,,2013-07-02 12:33:00,
2013-07-02 12:43:00,62.0,59.0,-100.00,NE,53,6.0,8.0,90,0.00,,,0.00,1.000000,,2013-07-02 12:43:00,
2013-07-02 12:52:00,62.0,59.0,-100.00,NE,53,6.0,8.0,90,0.00,,,0.00,1.000000,,2013-07-02 12:52:00,
2013-07-02 13:22:00,60.0,57.0,-100.00,ENE,72,6.0,10.0,89,0.00,,,0.00,6.000000,,2013-07-02 13:22:00,
2013-07-02 13:34:00,60.0,57.0,-100.00,ENE,72,6.0,10.0,89,0.00,,,0.00,6.000000,,2013-07-02 13:34:00,
2013-07-02 13:43:00,60.0,57.0,-100.00,ENE,72,6.0,10.0,89,0.00,,,0.00,6.000000,,2013-07-02 13:43:00,
2013-07-02 13:52:00,60.0,57.0,-100.00,ENE,72,6.0,10.0,89,0.00,,,0.00,6.000000,,2013-07-02 13:52:00,
2013-07-02 14:22:00,65.0,60.0,-100.00,ENE,62,5.0,7.0,83,0.00,,,0.00,86.000000,,2013-07-02 14:22:00,
2013-07-02 14:33:00,65.0,60.0,-100.00,ENE,62,5.0,7.0,83,0.00,,,0.00,86.000000,,2013-07-02 14:33:00,
2013-07-02 14:43:00,65.0,60.0,-100.00,ENE,62,5.0,7.0,83,0.00,,,0.00,86.000000,,2013-07-02 14:43:00,
2013-07-02 14:53:00,65.0,60.0,-100.00,ENE,62,5.0,7.0,83,0.00,,,0.00,86.000000,,2013-07-02 14:53:00,
2013-07-02 15:22:00,68.0,59.0,-100.00,ENE,63,7.0,10.0,74,0.00,,,-99.99,231.000000,,2013-07-02 15:22:00,
2013-07-02 15:33:00,68.0,59.0,-100.00,ENE,63,7.0,10.0,74,0.00,,,-99.99,231.000000,,2013-07-02 15:33:00,
2013-07-02 15:44:00,68.0,59.0,-100.00,ENE,63,7.0,10.0,74,0.00,,,-99.99,231.000000,,2013-07-02 15:44:00,
2013-07-02 15:53:00,68.0,59.0,-100.00,ENE,63,7.0,10.0,74,0.00,,,-99.99,231.000000,,2013-07-02 15:53:00,
2013-07-02 16:33:00,75.0,61.0,-100.00,ENE,69,5.0,10.0,62,0.00,,,0.00,413.000000,,2013-07-02 16:33:00,
2013-07-02 16:43:00,75.0,61.0,-100.00,ENE,69,5.0,10.0,62,0.00,,,0.00,413.000000,,2013-07-02 16:43:00,
2013-07-02 16:52:00,75.0,61.0,-100.00,ENE,69,5.0,10.0,62,0.00,,,0.00,413.000000,,2013-07-02 16:52:00,
2013-07-02 17:33:00,82.0,61.0,-100.00,NNE,32,4.0,8.0,50,0.00,,,0.00,598.000000,,2013-07-02 17:33:00,
2013-07-02 17:43:00,82.0,61.0,-100.00,NNE,32,4.0,8.0,50,0.00,,,0.00,598.000000,,2013-07-02 17:43:00,
2013-07-02 17:53:00,82.0,61.0,-100.00,NNE,32,4.0,8.0,50,0.00,,,0.00,598.000000,,2013-07-02 17:53:00,
2013-07-02 18:34:00,88.0,59.0,-100.00,NNE,13,3.0,8.0,38,0.00,,,0.00,769.000000,,2013-07-02 18:34:00,
2013-07-02 18:43:00,88.0,59.0,-100.00,NNE,13,3.0,8.0,38,0.00,,,0.00,769.000000,,2013-07-02 18:43:00,
2013-07-02 18:53:00,88.0,59.0,-100.00,NNE,13,3.0,8.0,38,0.00,,,0.00,769.000000,,2013-07-02 18:53:00,
2013-07-02 19:34:00,91.0,63.0,-100.00,WSW,250,6.0,9.0,39,0.00,,,0.00,885.000000,,2013-07-02 19:34:00,
2013-07-02 19:43:00,91.0,63.0,-100.00,WSW,250,6.0,9.0,39,0.00,,,0.00,885.000000,,2013-07-02 19:43:00,
2013-07-02 19:53:00,91.0,63.0,-100.00,WSW,250,6.0,9.0,39,0.00,,,0.00,885.000000,,2013-07-02 19:53:00,
2013-07-02 20:22:00,94.0,55.0,-100.00,WNW,297,7.0,12.0,27,0.00,,,0.00,943.000000,,2013-07-02 20:22:00,
2013-07-02 20:33:00,94.0,55.0,-100.00,WNW,297,7.0,12.0,27,0.00,,,0.00,943.000000,,2013-07-02 20:33:00,
2013-07-02 20:43:00,94.0,55.0,-100.00,WNW,297,7.0,12.0,27,0.00,,,0.00,943.000000,,2013-07-02 20:43:00,
2013-07-02 20:52:00,94.0,55.0,-100.00,WNW,297,7.0,12.0,27,0.00,,,0.00,943.000000,,2013-07-02 20:52:00,
2013-07-02 21:22:00,96.0,51.0,-100.00,NW,316,7.0,14.0,22,0.00,,,0.00,977.000000,,2013-07-02 21:22:00,
2013-07-02 21:33:00,96.0,51.0,-100.00,NW,316,7.0,14.0,22,0.00,,,0.00,977.000000,,2013-07-02 21:33:00,
2013-07-02 21:43:00,96.0,51.0,-100.00,NW,316,7.0,14.0,22,0.00,,,0.00,977.000000,,2013-07-02 21:43:00,
2013-07-02 21:52:00,96.0,51.0,-100.00,NW,316,7.0,14.0,22,0.00,,,0.00,977.000000,,2013-07-02 21:52:00,
2013-07-02 22:22:00,96.0,51.0,-100.00,WNW,302,9.0,16.0,22,0.00,,,0.00,949.000000,,2013-07-02 22:22:00,
2013-07-02 22:33:00,96.0,51.0,-100.00,WNW,302,9.0,16.0,22,0.00,,,0.00,949.000000,,2013-07-02 22:33:00,
2013-07-02 22:43:00,96.0,51.0,-100.00,WNW,302,9.0,16.0,22,0.00,,,0.00,949.000000,,2013-07-02 22:43:00,
2013-07-02 22:53:00,96.0,51.0,-100.00,WNW,302,9.0,16.0,22,0.00,,,0.00,949.000000,,2013-07-02 22:53:00,
2013-07-02 23:33:00,96.0,47.0,-100.00,WNW,296,11.0,20.0,19,0.00,,,0.00,782.000000,,2013-07-02 23:33:00,
2013-07-02 23:44:00,96.0,47.0,-100.00,WNW,296,11.0,20.0,19,0.00,,,0.00,782.000000,,2013-07-02 23:44:00,
2013-07-02 23:52:00,96.0,47.0,-100.00,WNW,296,11.0,20.0,19,0.00,,,0.00,782.000000,,2013-07-02 23:52:00,